Time;durP1;ratioP1;P1;durP2;ratioP2;P2;SDS_P1;SDS_P2;PMS_P1;PMS_P2;Temp;Humidity;BMP_temperature;BMP_pressure;BME280_temperature;BME280_humidity;BME280_pressure;Samples;Min_cycle;Max_cycle;Signal;HPM_P1;HPM_P2
2021/08/29 05:02:16;;;;;;;14.85;9.35;;;14.30;88.00;;;;;;5082775;23;20485;-90
2021/08/29 05:05:09;;;;;;;18.92;10.77;;;14.30;88.90;;;;;;4884238;29;20432;-91
2021/08/29 05:07:36;;;;;;;15.85;10.57;;;14.30;88.00;;;;;;4900626;29;20037;-90
2021/08/29 05:10:07;;;;;;;16.65;11.18;;;15.50;89.30;;;;;;4883703;29;20029;-90
2021/08/29 05:12:35;;;;;;;18.52;11.32;;;14.30;88.30;;;;;;4884116;29;20052;-90
2021/08/29 05:15:03;;;;;;;16.98;10.80;;;15.50;89.20;;;;;;4884243;29;20029;-91
2021/08/29 05:17:32;;;;;;;16.05;10.25;;;14.40;89.10;;;;;;4883977;29;20033;-90
2021/08/29 05:20:05;;;;;;;16.05;10.45;;;14.80;88.90;;;;;;4884054;29;20511;-89
2021/08/29 05:22:33;;;;;;;19.27;12.27;;;14.50;88.30;;;;;;4884041;29;20076;-89
2021/08/29 05:25:02;;;;;;;19.67;11.95;;;15.40;89.30;;;;;;4883489;29;20032;-89
2021/08/29 05:27:34;;;;;;;16.20;11.55;;;14.00;89.20;;;;;;4869059;29;20088;-90
2021/08/29 05:30:00;;;;;;;19.10;12.38;;;15.70;89.50;;;;;;4883503;29;20032;-86
2021/08/29 05:32:26;;;;;;;17.55;12.27;;;14.80;89.10;;;;;;4868162;29;20029;-90
2021/08/29 05:34:51;;;;;;;18.30;12.32;;;14.70;89.10;;;;;;4883632;29;20507;-90
2021/08/29 05:37:23;;;;;;;17.42;12.15;;;16.00;89.70;;;;;;4885124;29;20056;-90
2021/08/29 05:39:50;;;;;;;17.20;12.05;;;15.40;89.90;;;;;;4905110;29;20095;-89
2021/08/29 05:42:22;;;;;;;15.65;11.38;;;16.10;89.80;;;;;;4887258;29;20040;-90
2021/08/29 05:44:47;;;;;;;15.23;11.05;;;15.20;89.30;;;;;;4870421;29;20117;-90
2021/08/29 05:47:14;;;;;;;14.48;9.88;;;16.40;90.10;;;;;;4884069;29;20032;-89
2021/08/29 05:49:44;;;;;;;13.13;8.35;;;14.90;89.20;;;;;;4883026;29;20092;-89
2021/08/29 05:52:10;;;;;;;12.60;8.90;;;16.00;89.60;;;;;;4867254;29;20024;-88
2021/08/29 05:54:36;;;;;;;13.77;9.02;;;16.80;90.00;;;;;;4882248;29;20552;-87
2021/08/29 05:57:06;;;;;;;15.07;9.07;;;15.70;89.50;;;;;;4882276;29;20401;-87
2021/08/29 05:59:32;;;;;;;15.57;9.35;;;15.90;89.30;;;;;;4882432;29;20081;-87
2021/08/29 06:01:58;;;;;;;13.07;9.32;;;16.90;89.60;;;;;;4894570;29;20044;-86
2021/08/29 06:04:23;;;;;;;13.60;9.52;;;16.30;89.20;;;;;;4885363;29;20477;-86
2021/08/29 06:06:50;;;;;;;12.75;8.57;;;17.20;89.30;;;;;;4900621;29;20115;-86
2021/08/29 06:09:16;;;;;;;12.02;8.27;;;16.70;89.00;;;;;;4900568;29;20024;-87
2021/08/29 06:11:42;;;;;;;11.48;8.30;;;16.70;88.70;;;;;;4885389;29;20084;-87
2021/08/29 06:14:08;;;;;;;11.50;7.72;;;16.60;88.40;;;;;;4917512;29;20043;-86
2021/08/29 06:16:34;;;;;;;12.20;8.10;;;16.80;88.40;;;;;;4900861;29;20528;-86
2021/08/29 06:19:00;;;;;;;23.67;21.20;;;17.20;88.30;;;;;;4900455;29;20123;-86
2021/08/29 06:21:26;;;;;;;12.95;9.93;;;15.70;87.30;;;;;;4885234;29;20028;-87
2021/08/29 06:23:56;;;;;;;10.27;6.93;;;18.10;88.40;;;;;;4885536;29;20024;-91
2021/08/29 06:26:25;;;;;;;10.73;6.63;;;17.10;87.50;;;;;;4891456;29;20098;-85
2021/08/29 06:28:50;;;;;;;9.55;6.50;;;17.50;86.90;;;;;;4894969;29;20028;-88
2021/08/29 06:31:16;;;;;;;9.18;5.47;;;18.10;87.10;;;;;;4912056;29;20072;-88
2021/08/29 06:33:42;;;;;;;10.10;5.65;;;18.40;87.00;;;;;;4909345;29;20063;-89
2021/08/29 06:36:09;;;;;;;9.07;4.93;;;17.20;86.30;;;;;;4912060;29;20032;-88
2021/08/29 06:38:35;;;;;;;8.38;4.30;;;17.70;86.20;;;;;;4905998;29;20532;-87
2021/08/29 06:41:03;;;;;;;7.60;4.10;;;17.60;86.40;;;;;;4904007;29;20024;-87
2021/08/29 06:43:29;;;;;;;7.70;4.05;;;17.70;86.90;;;;;;4904199;29;20024;-87
2021/08/29 06:45:55;;;;;;;7.85;3.85;;;17.50;86.50;;;;;;4889001;29;20465;-89
2021/08/29 06:48:21;;;;;;;8.40;3.92;;;17.80;86.40;;;;;;4873761;29;20433;-88
2021/08/29 06:50:47;;;;;;;7.68;4.22;;;17.50;86.30;;;;;;4888573;29;20036;-87
2021/08/29 06:53:13;;;;;;;7.13;3.70;;;18.90;88.10;;;;;;4904152;29;20376;-87
2021/08/29 06:55:39;;;;;;;7.00;3.40;;;19.40;86.90;;;;;;4903920;29;20483;-87
2021/08/29 06:58:06;;;;;;;7.03;3.65;;;18.40;85.70;;;;;;4904377;29;20032;-87
2021/08/29 07:00:31;;;;;;;6.03;3.00;;;18.50;85.40;;;;;;4919200;29;20069;-86
2021/08/29 07:02:57;;;;;;;5.90;2.80;;;18.70;85.60;;;;;;4885602;29;20449;-88
2021/08/29 07:05:27;;;;;;;4.88;2.90;;;18.80;85.60;;;;;;4855613;29;20040;-90
2021/08/29 07:07:54;;;;;;;6.40;3.15;;;19.70;85.70;;;;;;4886266;29;20028;-90
2021/08/29 07:10:20;;;;;;;5.65;2.83;;;18.90;84.60;;;;;;4894438;29;20008;-91
2021/08/29 07:12:45;;;;;;;7.57;3.20;;;18.90;84.10;;;;;;4889865;29;20067;-86
2021/08/29 07:15:11;;;;;;;6.15;3.05;;;18.90;83.50;;;;;;4898964;29;20048;-86
2021/08/29 07:17:37;;;;;;;4.57;2.50;;;18.80;83.70;;;;;;4872495;29;20061;-91
2021/08/29 07:20:07;;;;;;;6.47;2.97;;;18.80;84.00;;;;;;4873175;29;20032;-92
2021/08/29 07:22:36;;;;;;;4.72;2.50;;;18.60;83.80;;;;;;4885146;29;20033;-93
2021/08/29 07:25:01;;;;;;;4.82;2.53;;;18.90;84.40;;;;;;4884560;29;20032;-92
2021/08/29 07:27:27;;;;;;;4.28;2.20;;;18.50;84.60;;;;;;4885764;29;20028;-90
2021/08/29 07:29:52;;;;;;;4.60;2.38;;;18.60;85.00;;;;;;4884430;29;20036;-85
2021/08/29 07:32:20;;;;;;;4.63;2.38;;;19.10;85.30;;;;;;4883826;29;20034;-87
2021/08/29 07:34:46;;;;;;;3.40;2.20;;;18.70;85.00;;;;;;4884581;29;20462;-86
2021/08/29 07:37:14;;;;;;;3.97;1.95;;;18.80;84.50;;;;;;4900702;29;20096;-86
2021/08/29 07:39:39;;;;;;;2.88;1.90;;;19.60;85.90;;;;;;4869178;29;20036;-86
2021/08/29 07:42:05;;;;;;;2.55;1.80;;;20.10;85.10;;;;;;4868886;29;20028;-85
2021/08/29 07:44:31;;;;;;;8.00;5.68;;;19.20;84.50;;;;;;4868293;29;20043;-86
2021/08/29 07:46:57;;;;;;;5.30;2.70;;;19.40;84.80;;;;;;4901034;29;20433;-86
2021/08/29 07:49:22;;;;;;;3.67;1.92;;;20.10;84.80;;;;;;4868927;29;20081;-87
2021/08/29 07:51:48;;;;;;;1.95;1.63;;;19.40;84.10;;;;;;4900704;29;20473;-87
2021/08/29 07:54:14;;;;;;;2.63;1.85;;;19.90;84.10;;;;;;4884379;29;20428;-87
2021/08/29 07:56:42;;;;;;;1.40;1.30;;;20.10;83.40;;;;;;4884589;29;20040;-86
2021/08/29 07:59:07;;;;;;;2.53;1.60;;;20.20;82.40;;;;;;4900876;29;20068;-86
2021/08/29 08:01:33;;;;;;;2.03;1.50;;;20.10;82.50;;;;;;4900766;29;20489;-84
2021/08/29 08:03:59;;;;;;;2.22;1.40;;;20.20;82.50;;;;;;4884101;29;20037;-83
2021/08/29 08:06:25;;;;;;;2.10;1.50;;;20.30;82.30;;;;;;4868724;29;20132;-83
2021/08/29 08:08:53;;;;;;;2.00;1.50;;;20.60;81.90;;;;;;4868609;29;20115;-85
2021/08/29 08:11:18;;;;;;;1.48;1.30;;;18.90;81.30;;;;;;4883811;29;20052;-83
2021/08/29 08:13:45;;;;;;;2.40;1.73;;;21.50;83.10;;;;;;4884163;29;20598;-84
2021/08/29 08:16:10;;;;;;;1.80;1.13;;;20.50;82.90;;;;;;4900468;29;20028;-84
2021/08/29 08:18:36;;;;;;;1.52;1.30;;;19.50;81.80;;;;;;4900488;29;20112;-84
2021/08/29 08:21:02;;;;;;;1.08;1.08;;;21.00;82.00;;;;;;4883595;29;20037;-84
2021/08/29 08:23:27;;;;;;;1.58;1.30;;;21.20;81.60;;;;;;4900392;29;20032;-83
2021/08/29 08:25:53;;;;;;;12.52;8.23;;;21.40;81.70;;;;;;4900501;29;20036;-84
2021/08/29 08:28:19;;;;;;;2.72;1.42;;;21.30;82.90;;;;;;4900474;29;20108;-89
2021/08/29 08:30:44;;;;;;;1.38;1.20;;;22.20;81.90;;;;;;4884456;29;20025;-85
2021/08/29 08:33:10;;;;;;;2.30;1.20;;;22.70;81.60;;;;;;4883096;29;20048;-85
2021/08/29 08:35:35;;;;;;;1.02;0.98;;;23.00;81.10;;;;;;4883311;29;20040;-85
2021/08/29 08:38:04;;;;;;;2.03;1.33;;;23.20;80.20;;;;;;4900175;29;20060;-86
2021/08/29 08:40:39;;;;;;;1.42;1.10;;;23.20;80.00;;;;;;4868093;29;20084;-85
2021/08/29 08:43:04;;;;;;;1.00;1.00;;;23.30;78.40;;;;;;4900286;29;20385;-85
2021/08/29 08:45:30;;;;;;;1.33;1.10;;;23.50;79.40;;;;;;4897671;29;20084;-85
2021/08/29 08:47:59;;;;;;;1.10;0.98;;;23.80;78.40;;;;;;4903811;29;20040;-86
2021/08/29 08:50:27;;;;;;;0.80;0.80;;;23.90;77.10;;;;;;4894662;29;20445;-86
2021/08/29 08:52:56;;;;;;;1.13;1.02;;;23.90;77.40;;;;;;4903077;29;20071;-86
2021/08/29 08:55:22;;;;;;;0.82;0.82;;;24.00;76.40;;;;;;4902761;29;20032;-86
2021/08/29 08:57:49;;;;;;;1.23;1.00;;;24.20;76.90;;;;;;4901247;29;20056;-86
2021/08/29 09:00:15;;;;;;;1.00;1.00;;;25.00;77.20;;;;;;4900192;29;20025;-87
2021/08/29 09:02:41;;;;;;;0.90;0.90;;;24.50;76.70;;;;;;4897923;29;20528;-86
2021/08/29 09:05:10;;;;;;;0.80;0.80;;;24.60;74.90;;;;;;4884687;29;20060;-86
2021/08/29 09:07:36;;;;;;;1.65;1.52;;;24.70;76.00;;;;;;4899298;29;20029;-85
2021/08/29 09:10:04;;;;;;;0.98;0.98;;;24.80;75.90;;;;;;4898948;29;20043;-84
2021/08/29 09:12:30;;;;;;;0.93;0.93;;;25.10;76.70;;;;;;4890577;29;20026;-87
2021/08/29 09:14:58;;;;;;;0.98;0.95;;;25.20;74.20;;;;;;4882944;29;20043;-84
2021/08/29 09:17:29;;;;;;;1.02;1.00;;;25.10;73.40;;;;;;4900123;29;20028;-87
2021/08/29 09:20:14;;;;;;;1.63;1.05;;;24.60;73.30;;;;;;4899692;29;20124;-90
2021/08/29 09:22:41;;;;;;;1.55;1.00;;;24.60;73.20;;;;;;4898325;29;20036;-88
2021/08/29 09:25:30;;;;;;;1.38;1.13;;;24.80;74.10;;;;;;4898621;29;20031;-90
2021/08/29 09:27:59;;;;;;;3.25;1.40;;;23.40;75.20;;;;;;4897579;29;20080;-89
2021/08/29 09:30:30;;;;;;;1.08;0.98;;;23.30;76.60;;;;;;4898179;29;20433;-91
2021/08/29 09:33:04;;;;;;;2.58;1.25;;;23.30;77.20;;;;;;4882642;29;20057;-86
2021/08/29 09:35:32;;;;;;;2.03;1.35;;;23.20;77.60;;;;;;4899333;29;20029;-89
2021/08/29 09:38:16;;;;;;;0.95;0.90;;;23.20;76.70;;;;;;4899238;29;20029;-88
2021/08/29 09:40:42;;;;;;;1.15;1.10;;;23.20;77.50;;;;;;4898026;29;20032;-89
2021/08/29 09:43:08;;;;;;;0.98;0.98;;;23.30;77.50;;;;;;4882722;29;20046;-90
2021/08/29 09:45:45;;;;;;;5.03;2.53;;;23.60;78.40;;;;;;4898688;29;20028;-89
2021/08/29 09:48:14;;;;;;;1.10;1.00;;;23.80;77.20;;;;;;4882963;29;20029;-90
2021/08/29 09:50:44;;;;;;;1.08;1.00;;;23.70;76.00;;;;;;4899061;29;20116;-88
2021/08/29 09:53:19;;;;;;;0.70;0.70;;;23.90;75.00;;;;;;4890710;29;20116;-89
2021/08/29 09:55:46;;;;;;;0.90;0.90;;;23.80;74.00;;;;;;4880814;29;20036;-92
2021/08/29 09:58:32;;;;;;;0.80;0.80;;;23.70;75.10;;;;;;4879886;29;20092;-94
2021/08/29 10:01:18;;;;;;;0.68;0.68;;;23.70;74.50;;;;;;4898371;29;20104;-91
2021/08/29 10:03:49;;;;;;;1.05;0.93;;;23.50;74.20;;;;;;4901043;29;20101;-86
2021/08/29 10:06:24;;;;;;;1.00;0.90;;;23.40;74.70;;;;;;4901767;29;20028;-89
2021/08/29 10:09:00;;;;;;;1.15;1.00;;;23.40;75.10;;;;;;4898220;29;20080;-89
2021/08/29 10:11:32;;;;;;;0.90;0.90;;;23.80;76.80;;;;;;4900134;29;20488;-96
2021/08/29 10:14:02;;;;;;;0.63;0.60;;;23.70;76.80;;;;;;4898538;29;20092;-91
2021/08/29 10:16:31;;;;;;;1.85;0.82;;;23.90;74.90;;;;;;4868946;29;20119;-93
2021/08/29 10:18:57;;;;;;;0.98;0.73;;;24.30;75.10;;;;;;4917420;29;20009;-91
2021/08/29 10:21:27;;;;;;;1.00;0.90;;;24.60;75.90;;;;;;4918847;29;20009;-90
2021/08/29 10:23:56;;;;;;;0.80;0.80;;;24.70;74.50;;;;;;4907370;29;20056;-90
2021/08/29 10:26:23;;;;;;;1.10;1.00;;;25.00;74.30;;;;;;4901213;29;20028;-92
2021/08/29 10:29:03;;;;;;;1.23;0.88;;;25.10;73.60;;;;;;4900342;29;20035;-91
2021/08/29 10:31:35;;;;;;;0.80;0.80;;;25.10;73.70;;;;;;4896398;29;20017;-92
2021/08/29 10:34:02;;;;;;;1.42;1.02;;;24.90;72.50;;;;;;4905274;29;20084;-91
2021/08/29 10:36:28;;;;;;;1.00;0.90;;;25.00;72.40;;;;;;4906791;29;20075;-89
2021/08/29 10:38:54;;;;;;;1.00;1.00;;;25.30;72.80;;;;;;4898673;29;20041;-88
2021/08/29 10:41:22;;;;;;;2.28;1.10;;;24.90;72.30;;;;;;4897548;29;20169;-88
2021/08/29 10:43:51;;;;;;;1.02;0.80;;;24.90;71.60;;;;;;4898680;29;20107;-88
2021/08/29 10:46:19;;;;;;;0.90;0.90;;;24.80;73.40;;;;;;4898591;29;20020;-87
2021/08/29 10:48:47;;;;;;;1.02;0.85;;;25.10;74.00;;;;;;4897565;29;20089;-88
2021/08/29 10:51:15;;;;;;;0.73;0.73;;;25.10;73.80;;;;;;4898380;29;20028;-88
2021/08/29 10:53:48;;;;;;;0.70;0.70;;;25.50;74.20;;;;;;4897411;29;20033;-88
2021/08/29 10:56:14;;;;;;;0.73;0.73;;;25.30;73.40;;;;;;4898802;29;20107;-90
2021/08/29 10:58:44;;;;;;;0.75;0.75;;;25.30;74.10;;;;;;4897058;29;20119;-86
2021/08/29 11:01:34;;;;;;;0.93;0.88;;;25.40;73.30;;;;;;4881503;29;20084;-86
2021/08/29 11:04:41;;;;;;;1.52;0.73;;;24.50;72.30;;;;;;4897632;29;20469;-89
2021/08/29 11:07:07;;;;;;;2.50;1.15;;;23.20;71.80;;;;;;4897560;29;20080;-90
2021/08/29 11:11:59;;;;;;;0.85;0.85;;;23.20;74.90;;;;;;4882160;29;20041;-90
2021/08/29 11:14:47;;;;;;;4.35;1.77;;;22.80;74.00;;;;;;4882173;29;20044;-89
2021/08/29 11:17:27;;;;;;;1.30;1.17;;;22.90;75.50;;;;;;4881831;29;20477;-87
2021/08/29 11:20:03;;;;;;;1.85;1.10;;;23.00;75.80;;;;;;4881507;29;20088;-86
2021/08/29 11:22:46;;;;;;;0.80;0.80;;;23.30;75.90;;;;;;4881530;29;20081;-86
2021/08/29 11:25:19;;;;;;;0.85;0.85;;;24.10;74.50;;;;;;4883763;29;20056;-87
2021/08/29 11:27:54;;;;;;;0.90;0.90;;;23.70;74.70;;;;;;4893710;29;20036;-86
2021/08/29 11:30:24;;;;;;;0.80;0.80;;;24.00;74.60;;;;;;4899885;29;20035;-87
2021/08/29 11:32:57;;;;;;;0.95;0.80;;;24.40;74.90;;;;;;4901042;29;20060;-87
2021/08/29 11:35:23;;;;;;;0.65;0.65;;;24.30;72.70;;;;;;4901841;29;20059;-87
2021/08/29 11:38:18;;;;;;;0.60;0.60;;;24.40;74.10;;;;;;4900452;29;20560;-87
2021/08/29 11:40:59;;;;;;;1.13;0.80;;;24.40;72.30;;;;;;4889003;29;20499;-88
2021/08/29 11:43:28;;;;;;;0.75;0.75;;;24.10;72.50;;;;;;4886428;29;20060;-87
2021/08/29 11:45:59;;;;;;;1.02;0.90;;;24.50;73.30;;;;;;4899919;29;20039;-87
2021/08/29 11:48:27;;;;;;;0.75;0.75;;;23.50;72.70;;;;;;4901151;29;20025;-87
2021/08/29 11:50:53;;;;;;;6.45;4.07;;;23.10;72.80;;;;;;4901487;29;20024;-86
2021/08/29 11:53:19;;;;;;;1.75;1.15;;;22.80;73.90;;;;;;4885997;29;20061;-84
2021/08/29 11:55:45;;;;;;;0.90;0.90;;;22.50;74.40;;;;;;4884764;29;20084;-86
2021/08/29 11:58:21;;;;;;;0.70;0.70;;;22.30;74.80;;;;;;4899917;29;20422;-88
2021/08/29 12:00:48;;;;;;;0.73;0.70;;;23.00;76.50;;;;;;4899861;29;20139;-88
2021/08/29 12:03:16;;;;;;;0.80;0.70;;;21.80;76.60;;;;;;4882966;29;20033;-89
2021/08/29 12:05:57;;;;;;;1.00;0.90;;;22.60;76.30;;;;;;4901311;29;20044;-89
2021/08/29 12:08:33;;;;;;;2.35;0.82;;;23.10;76.60;;;;;;4901447;29;20112;-90
2021/08/29 12:11:00;;;;;;;0.80;0.80;;;23.20;76.30;;;;;;4881515;29;20036;-90
2021/08/29 12:13:30;;;;;;;1.23;1.00;;;23.70;75.70;;;;;;4896733;29;20102;-88
2021/08/29 12:16:01;;;;;;;1.20;0.82;;;23.60;74.60;;;;;;4865749;29;20096;-85
2021/08/29 12:18:28;;;;;;;0.88;0.88;;;23.60;74.10;;;;;;4888654;29;20024;-86
2021/08/29 12:20:55;;;;;;;1.45;1.15;;;24.40;74.60;;;;;;4899874;29;20033;-89
2021/08/29 12:23:25;;;;;;;0.77;0.77;;;23.60;73.70;;;;;;4885057;29;20033;-91
2021/08/29 12:26:03;;;;;;;1.23;0.70;;;23.60;74.10;;;;;;4900299;29;20033;-85
2021/08/29 12:28:29;;;;;;;0.60;0.60;;;24.40;75.10;;;;;;4901622;29;20523;-89
2021/08/29 12:30:56;;;;;;;0.70;0.70;;;24.20;74.30;;;;;;4901759;29;20031;-89
2021/08/29 12:33:24;;;;;;;6.43;2.97;;;23.60;74.40;;;;;;4894581;29;20029;-89
2021/08/29 12:35:51;;;;;;;1.30;1.20;;;23.60;73.40;;;;;;4895135;29;20571;-86
2021/08/29 12:38:27;;;;;;;0.57;0.57;;;23.30;73.50;;;;;;4900583;29;20111;-89
2021/08/29 12:40:57;;;;;;;0.80;0.80;;;23.20;72.90;;;;;;4902907;29;20477;-89
2021/08/29 12:43:27;;;;;;;0.70;0.70;;;23.00;74.60;;;;;;4900582;29;20033;-89
2021/08/29 12:45:54;;;;;;;1.90;1.20;;;22.80;74.50;;;;;;4900411;29;20505;-89
2021/08/29 12:48:21;;;;;;;0.90;0.90;;;22.20;74.70;;;;;;4880418;29;20041;-89
2021/08/29 12:50:51;;;;;;;1.52;0.98;;;23.10;75.70;;;;;;4881925;29;20025;-89
2021/08/29 12:53:24;;;;;;;1.05;0.73;;;22.50;76.10;;;;;;4882206;29;20089;-90
2021/08/29 12:55:52;;;;;;;0.90;0.85;;;22.60;76.50;;;;;;4880644;29;20040;-90
2021/08/29 12:58:24;;;;;;;4.18;0.90;;;22.70;76.00;;;;;;4882246;29;20025;-91
2021/08/29 13:01:01;;;;;;;2.10;1.05;;;23.10;76.60;;;;;;4882248;29;20083;-91
2021/08/29 13:03:28;;;;;;;1.73;1.10;;;23.10;76.40;;;;;;4889491;29;20453;-88
2021/08/29 13:06:01;;;;;;;1.10;0.90;;;22.50;76.10;;;;;;4884140;29;20031;-88
2021/08/29 13:08:45;;;;;;;0.75;0.75;;;22.60;75.70;;;;;;4883606;29;20040;-90
2021/08/29 13:11:21;;;;;;;0.98;0.98;;;22.30;76.10;;;;;;4901108;29;20119;-89
2021/08/29 13:13:55;;;;;;;0.75;0.75;;;22.50;77.20;;;;;;4883071;29;20041;-88
2021/08/29 13:16:35;;;;;;;0.88;0.88;;;22.70;77.10;;;;;;4900443;29;20024;-89
2021/08/29 13:19:01;;;;;;;0.80;0.80;;;22.90;75.40;;;;;;4883146;29;20037;-88
2021/08/29 13:21:35;;;;;;;0.60;0.60;;;23.10;75.70;;;;;;4893319;29;20496;-89
2021/08/29 13:24:21;;;;;;;;;;;23.10;73.40;;;;;;4899798;29;20036;-88
2021/08/29 13:26:47;;;;;;;0.90;0.90;;;23.10;73.30;;;;;;4874966;29;20287;-87
2021/08/29 13:29:13;;;;;;;0.80;0.80;;;23.40;74.00;;;;;;4867076;29;20035;-88
2021/08/29 13:31:38;;;;;;;1.13;1.00;;;22.80;74.70;;;;;;4867690;29;20028;-88
2021/08/29 13:34:08;;;;;;;1.00;0.85;;;23.80;74.40;;;;;;4899284;29;20037;-88
2021/08/29 13:36:44;;;;;;;0.98;0.90;;;24.00;73.30;;;;;;4876019;29;20104;-88
2021/08/29 13:39:12;;;;;;;0.77;0.77;;;23.80;72.50;;;;;;4880802;29;20036;-88
2021/08/29 13:41:40;;;;;;;2.25;1.00;;;24.00;73.00;;;;;;4864349;29;20109;-88
2021/08/29 13:44:06;;;;;;;0.82;0.80;;;24.20;73.00;;;;;;4864388;29;20036;-88
2021/08/29 13:46:32;;;;;;;1.75;0.80;;;24.00;74.80;;;;;;4881736;29;20077;-88
2021/08/29 13:48:58;;;;;;;0.90;0.90;;;24.80;73.80;;;;;;4881514;29;20029;-88
2021/08/29 13:51:24;;;;;;;0.85;0.85;;;24.30;73.10;;;;;;4880883;29;20033;-88
2021/08/29 13:53:57;;;;;;;1.13;0.95;;;24.50;72.40;;;;;;4865167;29;20045;-87
2021/08/29 13:56:23;;;;;;;1.10;1.00;;;24.50;71.80;;;;;;4864143;29;20025;-88
2021/08/29 13:58:49;;;;;;;0.75;0.75;;;24.50;73.30;;;;;;4864165;29;20037;-87
2021/08/29 14:01:15;;;;;;;1.17;0.88;;;25.20;73.80;;;;;;4887648;29;20526;-87
2021/08/29 14:03:41;;;;;;;0.95;0.90;;;24.80;72.40;;;;;;4866998;29;20115;-88
2021/08/29 14:06:07;;;;;;;1.27;1.10;;;24.60;72.00;;;;;;4882330;29;20458;-88
2021/08/29 14:08:34;;;;;;;0.90;0.90;;;24.30;71.10;;;;;;4867212;29;20172;-87
2021/08/29 14:11:05;;;;;;;1.10;1.08;;;23.80;71.70;;;;;;4918232;29;20536;-87
2021/08/29 14:13:31;;;;;;;0.60;0.60;;;23.90;72.10;;;;;;4901452;29;20103;-87
2021/08/29 14:15:57;;;;;;;0.70;0.70;;;23.50;70.90;;;;;;4900727;29;20040;-87
2021/08/29 14:18:23;;;;;;;1.23;0.90;;;23.50;71.90;;;;;;4901023;29;20488;-88
2021/08/29 14:20:49;;;;;;;1.08;0.88;;;23.00;72.00;;;;;;4885846;29;20025;-87
2021/08/29 14:23:15;;;;;;;0.73;0.73;;;23.80;73.90;;;;;;4885574;29;20118;-87
2021/08/29 14:25:44;;;;;;;0.73;0.73;;;22.10;73.30;;;;;;4900720;29;20028;-86
2021/08/29 14:28:17;;;;;;;0.70;0.70;;;21.80;74.10;;;;;;4917878;29;20031;-87
2021/08/29 14:30:44;;;;;;;1.08;0.88;;;21.60;75.10;;;;;;4917762;29;20029;-87
2021/08/29 14:33:11;;;;;;;1.05;0.90;;;21.40;75.90;;;;;;4900698;29;20480;-88
2021/08/29 14:35:38;;;;;;;9.85;5.22;;;21.90;77.80;;;;;;4881624;29;20040;-88
2021/08/29 14:38:04;;;;;;;0.95;0.95;;;21.40;76.30;;;;;;4918118;29;20028;-88
2021/08/29 14:40:30;;;;;;;0.82;0.82;;;21.90;77.60;;;;;;4895093;29;20040;-88
2021/08/29 14:42:56;;;;;;;1.20;1.08;;;21.60;76.80;;;;;;4885413;29;20029;-88
2021/08/29 14:45:22;;;;;;;0.98;0.98;;;21.80;77.60;;;;;;4856065;29;20040;-87
2021/08/29 14:47:49;;;;;;;2.00;0.82;;;22.00;78.50;;;;;;4891807;29;20035;-88
2021/08/29 14:50:15;;;;;;;1.20;0.75;;;21.90;77.20;;;;;;4905428;29;20068;-88
2021/08/29 14:52:45;;;;;;;0.82;0.82;;;23.50;78.00;;;;;;4921920;29;20033;-87
2021/08/29 14:55:12;;;;;;;0.90;0.77;;;22.00;78.20;;;;;;4889177;29;20051;-88
2021/08/29 14:57:38;;;;;;;1.55;1.10;;;22.20;77.70;;;;;;4920655;29;20028;-87
2021/08/29 15:00:06;;;;;;;1.00;1.00;;;22.40;77.50;;;;;;4888711;29;20044;-88
2021/08/29 15:02:32;;;;;;;0.80;0.80;;;22.50;77.20;;;;;;4885626;29;20053;-88
2021/08/29 15:04:58;;;;;;;0.80;0.80;;;22.80;77.60;;;;;;4885026;29;20041;-87
2021/08/29 15:07:24;;;;;;;0.95;0.95;;;23.30;77.00;;;;;;4882428;29;20485;-87
2021/08/29 15:09:50;;;;;;;0.80;0.70;;;24.50;77.10;;;;;;4889827;29;20033;-87
2021/08/29 15:12:16;;;;;;;0.80;0.80;;;23.40;76.30;;;;;;4901458;29;20052;-87
2021/08/29 15:14:42;;;;;;;0.95;0.95;;;25.50;76.10;;;;;;4902990;29;20393;-87
2021/08/29 15:17:08;;;;;;;2.90;1.30;;;24.30;75.70;;;;;;4885526;29;20081;-87
2021/08/29 15:19:33;;;;;;;1.00;1.00;;;24.20;74.20;;;;;;4885707;29;20063;-91
2021/08/29 15:22:00;;;;;;;1.00;0.88;;;24.60;75.00;;;;;;4901357;29;20489;-85
2021/08/29 15:24:27;;;;;;;1.20;0.98;;;24.70;73.60;;;;;;4901862;29;20495;-88
2021/08/29 15:26:53;;;;;;;5.38;2.72;;;24.60;72.50;;;;;;4883302;29;20041;-88
2021/08/29 15:29:19;;;;;;;1.38;1.27;;;24.50;73.80;;;;;;4898673;29;20033;-88
2021/08/29 15:31:45;;;;;;;1.27;1.10;;;23.90;73.30;;;;;;4883685;29;20032;-89
2021/08/29 15:34:13;;;;;;;1.23;0.98;;;24.20;73.00;;;;;;4901236;29;20087;-89
2021/08/29 15:36:39;;;;;;;1.23;1.02;;;23.80;73.40;;;;;;4901891;29;20497;-88
2021/08/29 15:39:05;;;;;;;2.55;0.80;;;23.50;73.80;;;;;;4901911;29;20069;-88
2021/08/29 15:41:32;;;;;;;1.30;1.20;;;23.00;74.00;;;;;;4899461;29;20119;-88
2021/08/29 15:43:58;;;;;;;1.30;1.02;;;22.70;75.40;;;;;;4900315;29;20035;-88
2021/08/29 15:46:25;;;;;;;1.27;1.00;;;22.50;76.40;;;;;;4902016;29;20109;-88
2021/08/29 15:48:51;;;;;;;1.40;1.05;;;22.50;77.40;;;;;;4901627;29;20045;-87
2021/08/29 15:51:17;;;;;;;1.13;1.02;;;22.70;77.10;;;;;;4901270;29;20363;-88
2021/08/29 15:53:43;;;;;;;1.45;0.88;;;22.10;77.80;;;;;;4901499;29;20048;-88
2021/08/29 15:56:09;;;;;;;1.15;1.00;;;22.00;77.80;;;;;;4894811;29;20033;-88
2021/08/29 15:58:35;;;;;;;0.70;0.70;;;22.10;79.00;;;;;;4881612;29;20025;-86
2021/08/29 16:01:01;;;;;;;0.80;0.80;;;22.20;78.10;;;;;;4884266;29;20056;-87
2021/08/29 16:03:29;;;;;;;1.15;1.00;;;21.90;79.80;;;;;;4885344;29;20088;-88
2021/08/29 16:05:56;;;;;;;0.80;0.80;;;22.60;77.40;;;;;;4884738;29;20028;-88
2021/08/29 16:08:22;;;;;;;1.45;0.93;;;22.50;76.60;;;;;;4853780;29;20104;-88
2021/08/29 16:10:48;;;;;;;1.38;1.00;;;22.40;77.40;;;;;;4868753;29;20036;-88
2021/08/29 16:13:13;;;;;;;1.20;1.10;;;24.00;79.50;;;;;;4884858;29;20032;-88
2021/08/29 16:15:39;;;;;;;1.15;0.85;;;22.20;77.40;;;;;;4869230;29;20039;-88
2021/08/29 16:18:05;;;;;;;0.73;0.73;;;22.30;77.50;;;;;;4901136;29;20048;-88
2021/08/29 16:20:31;;;;;;;3.08;1.65;;;22.00;77.60;;;;;;4901335;29;20152;-88
2021/08/29 16:22:58;;;;;;;1.00;1.00;;;21.80;77.40;;;;;;4884742;29;20504;-89
2021/08/29 16:25:24;;;;;;;1.15;1.05;;;22.40;78.30;;;;;;4853216;29;20485;-89
2021/08/29 16:27:51;;;;;;;2.53;1.25;;;22.20;79.00;;;;;;4854015;29;20073;-89
2021/08/29 16:30:16;;;;;;;1.90;1.20;;;22.00;78.90;;;;;;4854263;29;20033;-88
2021/08/29 16:32:43;;;;;;;1.35;1.25;;;21.10;79.60;;;;;;4897104;29;20031;-87
2021/08/29 16:35:10;;;;;;;1.60;0.98;;;21.90;79.80;;;;;;4883960;29;20063;-87
2021/08/29 16:37:36;;;;;;;0.90;0.90;;;21.40;81.30;;;;;;4868744;29;20031;-88
2021/08/29 16:40:06;;;;;;;1.63;1.30;;;20.80;80.30;;;;;;4902371;29;20107;-88
2021/08/29 16:42:31;;;;;;;2.25;1.70;;;20.70;80.10;;;;;;4885788;29;20029;-88
2021/08/29 16:44:57;;;;;;;1.33;1.23;;;20.80;80.30;;;;;;4903014;29;20029;-88
2021/08/29 16:47:23;;;;;;;1.20;1.10;;;20.50;81.00;;;;;;4886004;29;20035;-87
2021/08/29 16:49:51;;;;;;;4.70;2.00;;;20.50;80.80;;;;;;4884329;29;20043;-87
2021/08/29 16:52:19;;;;;;;9.13;3.72;;;20.40;82.20;;;;;;4851223;29;20124;-87
2021/08/29 16:54:45;;;;;;;7.15;3.20;;;20.30;81.40;;;;;;4898656;29;20104;-88
2021/08/29 16:57:10;;;;;;;7.53;3.47;;;20.20;80.60;;;;;;4901839;29;20029;-88
2021/08/29 16:59:36;;;;;;;3.85;2.10;;;20.40;80.70;;;;;;4868808;29;20043;-88
2021/08/29 17:02:02;;;;;;;4.50;2.13;;;20.10;80.90;;;;;;4900594;29;20053;-88
2021/08/29 17:04:28;;;;;;;3.10;1.80;;;19.90;81.20;;;;;;4875860;29;20103;-90
2021/08/29 17:07:08;;;;;;;4.00;1.73;;;20.60;82.60;;;;;;4890565;29;20025;-91
2021/08/29 17:09:34;;;;;;;3.60;1.80;;;19.70;81.10;;;;;;4869221;29;20409;-91
2021/08/29 17:12:01;;;;;;;5.20;2.50;;;19.60;82.20;;;;;;4865957;29;20032;-90
2021/08/29 17:14:26;;;;;;;6.45;2.70;;;19.50;82.10;;;;;;4894941;29;20049;-93
2021/08/29 17:16:55;;;;;;;3.20;1.92;;;19.40;82.10;;;;;;4856473;29;20362;-93
2021/08/29 17:19:21;;;;;;;3.90;1.98;;;19.50;83.10;;;;;;4887810;29;20060;-95
2021/08/29 17:21:47;;;;;;;3.40;1.80;;;20.60;84.00;;;;;;4887129;29;20088;-89
2021/08/29 17:24:19;;;;;;;3.22;1.70;;;20.30;83.30;;;;;;4879210;29;20028;-95
2021/08/29 17:26:53;;;;;;;6.35;2.80;;;19.10;82.40;;;;;;4884288;29;20029;-95
2021/08/29 17:29:19;;;;;;;4.25;2.10;;;19.70;83.50;;;;;;4879052;29;20116;-95
2021/08/29 17:31:52;;;;;;;3.58;2.10;;;19.00;82.70;;;;;;4898650;29;20381;-96
2021/08/29 17:34:24;;;;;;;4.07;1.83;;;19.70;83.40;;;;;;4913707;29;20041;-96
2021/08/29 17:36:54;;;;;;;3.78;1.88;;;19.00;83.10;;;;;;4914434;29;20021;-95
2021/08/29 17:39:34;;;;;;;3.53;2.10;;;18.10;82.50;;;;;;4898646;29;20108;-96
2021/08/29 17:42:04;;;;;;;3.53;2.10;;;18.70;84.10;;;;;;4913631;29;20036;-96
2021/08/29 17:44:30;;;;;;;6.18;3.00;;;18.80;84.50;;;;;;4881893;29;20033;-95
2021/08/29 17:46:57;;;;;;;6.13;2.63;;;19.60;84.20;;;;;;4896932;29;20025;-95
2021/08/29 17:49:47;;;;;;;4.53;2.15;;;18.50;83.60;;;;;;4914473;29;20024;-96
2021/08/29 17:52:39;;;;;;;5.00;2.10;;;17.70;82.60;;;;;;4914908;29;20033;-96
2021/08/29 17:55:31;;;;;;;6.25;2.67;;;18.30;83.40;;;;;;4899605;29;20055;-94
2021/08/29 17:58:04;;;;;;;9.07;4.72;;;18.30;83.20;;;;;;4900216;29;20024;-94